sensor_id;sensor_type;location;lat;lon;timestamp;P1;durP1;ratioP1;P2;durP2;ratioP2
15055;SDS011;7626;42.674;23.284;2024-01-30T00:02:18;6.23;;;3.53;;
15055;SDS011;7626;42.674;23.284;2024-01-30T00:04:46;5.90;;;3.60;;
15055;SDS011;7626;42.674;23.284;2024-01-30T00:07:15;5.33;;;4.00;;
15055;SDS011;7626;42.674;23.284;2024-01-30T00:09:43;4.80;;;3.40;;
15055;SDS011;7626;42.674;23.284;2024-01-30T00:12:13;3.90;;;3.50;;
15055;SDS011;7626;42.674;23.284;2024-01-30T00:14:42;4.67;;;4.17;;
15055;SDS011;7626;42.674;23.284;2024-01-30T00:17:11;5.00;;;3.83;;
15055;SDS011;7626;42.674;23.284;2024-01-30T00:19:39;4.43;;;3.83;;
15055;SDS011;7626;42.674;23.284;2024-01-30T00:22:07;5.47;;;3.87;;
15055;SDS011;7626;42.674;23.284;2024-01-30T00:24:35;5.27;;;4.10;;
15055;SDS011;7626;42.674;23.284;2024-01-30T00:27:04;5.47;;;4.00;;
15055;SDS011;7626;42.674;23.284;2024-01-30T00:29:32;5.97;;;3.87;;
15055;SDS011;7626;42.674;23.284;2024-01-30T00:31:59;6.63;;;3.80;;
15055;SDS011;7626;42.674;23.284;2024-01-30T00:34:27;4.53;;;3.63;;
15055;SDS011;7626;42.674;23.284;2024-01-30T00:36:57;5.27;;;3.47;;
15055;SDS011;7626;42.674;23.284;2024-01-30T00:39:25;5.20;;;3.60;;
15055;SDS011;7626;42.674;23.284;2024-01-30T00:41:53;4.63;;;3.93;;
15055;SDS011;7626;42.674;23.284;2024-01-30T00:44:20;5.67;;;4.00;;
15055;SDS011;7626;42.674;23.284;2024-01-30T00:46:48;7.03;;;4.23;;
15055;SDS011;7626;42.674;23.284;2024-01-30T00:49:16;5.37;;;3.87;;
15055;SDS011;7626;42.674;23.284;2024-01-30T00:51:44;5.77;;;3.87;;
15055;SDS011;7626;42.674;23.284;2024-01-30T00:54:12;4.90;;;3.53;;
15055;SDS011;7626;42.674;23.284;2024-01-30T00:56:40;5.37;;;3.60;;
15055;SDS011;7626;42.674;23.284;2024-01-30T00:59:09;4.60;;;3.77;;
15055;SDS011;7626;42.674;23.284;2024-01-30T01:01:36;5.10;;;4.07;;
15055;SDS011;7626;42.674;23.284;2024-01-30T01:04:04;5.07;;;3.73;;
15055;SDS011;7626;42.674;23.284;2024-01-30T01:06:32;5.60;;;3.80;;
15055;SDS011;7626;42.674;23.284;2024-01-30T01:09:01;5.93;;;4.10;;
15055;SDS011;7626;42.674;23.284;2024-01-30T01:11:31;5.67;;;3.53;;
15055;SDS011;7626;42.674;23.284;2024-01-30T01:13:59;4.50;;;3.60;;
15055;SDS011;7626;42.674;23.284;2024-01-30T01:16:26;5.30;;;3.93;;
15055;SDS011;7626;42.674;23.284;2024-01-30T01:18:53;4.93;;;3.90;;
15055;SDS011;7626;42.674;23.284;2024-01-30T01:21:20;4.50;;;3.77;;
15055;SDS011;7626;42.674;23.284;2024-01-30T01:23:48;5.30;;;3.80;;
15055;SDS011;7626;42.674;23.284;2024-01-30T01:26:15;4.27;;;3.33;;
15055;SDS011;7626;42.674;23.284;2024-01-30T01:28:43;6.13;;;3.80;;
15055;SDS011;7626;42.674;23.284;2024-01-30T01:31:10;5.07;;;3.93;;
15055;SDS011;7626;42.674;23.284;2024-01-30T01:33:37;4.97;;;3.80;;
15055;SDS011;7626;42.674;23.284;2024-01-30T01:36:04;5.40;;;3.93;;
15055;SDS011;7626;42.674;23.284;2024-01-30T01:38:31;7.00;;;4.03;;
15055;SDS011;7626;42.674;23.284;2024-01-30T01:40:59;5.90;;;4.00;;
15055;SDS011;7626;42.674;23.284;2024-01-30T01:43:26;5.47;;;4.07;;
15055;SDS011;7626;42.674;23.284;2024-01-30T01:45:55;5.10;;;3.80;;
15055;SDS011;7626;42.674;23.284;2024-01-30T01:48:23;5.67;;;3.80;;
15055;SDS011;7626;42.674;23.284;2024-01-30T01:50:50;4.90;;;3.67;;
15055;SDS011;7626;42.674;23.284;2024-01-30T01:53:18;4.97;;;4.00;;
15055;SDS011;7626;42.674;23.284;2024-01-30T01:55:45;5.30;;;3.73;;
15055;SDS011;7626;42.674;23.284;2024-01-30T01:58:15;4.87;;;3.97;;
15055;SDS011;7626;42.674;23.284;2024-01-30T02:00:44;4.93;;;4.00;;
15055;SDS011;7626;42.674;23.284;2024-01-30T02:03:12;4.73;;;4.10;;
15055;SDS011;7626;42.674;23.284;2024-01-30T02:05:40;5.03;;;3.97;;
15055;SDS011;7626;42.674;23.284;2024-01-30T02:08:09;5.17;;;3.70;;
15055;SDS011;7626;42.674;23.284;2024-01-30T02:10:36;5.03;;;4.03;;
15055;SDS011;7626;42.674;23.284;2024-01-30T02:13:03;4.57;;;3.57;;
15055;SDS011;7626;42.674;23.284;2024-01-30T02:15:30;4.53;;;3.57;;
15055;SDS011;7626;42.674;23.284;2024-01-30T02:17:57;5.53;;;4.37;;
15055;SDS011;7626;42.674;23.284;2024-01-30T02:20:25;4.90;;;3.87;;
15055;SDS011;7626;42.674;23.284;2024-01-30T02:22:57;4.80;;;3.77;;
15055;SDS011;7626;42.674;23.284;2024-01-30T02:25:30;4.80;;;3.90;;
15055;SDS011;7626;42.674;23.284;2024-01-30T02:27:58;5.50;;;4.10;;
15055;SDS011;7626;42.674;23.284;2024-01-30T02:30:26;4.40;;;3.43;;
15055;SDS011;7626;42.674;23.284;2024-01-30T02:32:53;5.53;;;3.90;;
15055;SDS011;7626;42.674;23.284;2024-01-30T02:35:20;4.93;;;3.70;;
15055;SDS011;7626;42.674;23.284;2024-01-30T02:37:47;4.20;;;3.50;;
15055;SDS011;7626;42.674;23.284;2024-01-30T02:40:15;4.67;;;3.60;;
15055;SDS011;7626;42.674;23.284;2024-01-30T02:42:42;4.87;;;3.77;;
15055;SDS011;7626;42.674;23.284;2024-01-30T02:45:10;3.93;;;3.50;;
15055;SDS011;7626;42.674;23.284;2024-01-30T02:47:39;5.77;;;3.47;;
15055;SDS011;7626;42.674;23.284;2024-01-30T02:50:07;5.57;;;3.60;;
15055;SDS011;7626;42.674;23.284;2024-01-30T02:52:34;5.13;;;3.43;;
15055;SDS011;7626;42.674;23.284;2024-01-30T02:55:01;4.07;;;3.00;;
15055;SDS011;7626;42.674;23.284;2024-01-30T02:57:30;4.70;;;3.60;;
15055;SDS011;7626;42.674;23.284;2024-01-30T02:59:59;4.70;;;3.60;;
15055;SDS011;7626;42.674;23.284;2024-01-30T03:02:26;4.30;;;3.40;;
15055;SDS011;7626;42.674;23.284;2024-01-30T03:04:54;3.57;;;3.20;;
15055;SDS011;7626;42.674;23.284;2024-01-30T03:07:22;3.67;;;2.77;;
15055;SDS011;7626;42.674;23.284;2024-01-30T03:09:50;5.27;;;3.83;;
15055;SDS011;7626;42.674;23.284;2024-01-30T03:12:17;5.47;;;3.87;;
15055;SDS011;7626;42.674;23.284;2024-01-30T03:14:46;5.87;;;3.60;;
15055;SDS011;7626;42.674;23.284;2024-01-30T03:17:14;4.87;;;3.83;;
15055;SDS011;7626;42.674;23.284;2024-01-30T03:19:42;4.80;;;3.63;;
15055;SDS011;7626;42.674;23.284;2024-01-30T03:22:10;4.33;;;3.33;;
15055;SDS011;7626;42.674;23.284;2024-01-30T03:24:38;4.23;;;3.30;;
15055;SDS011;7626;42.674;23.284;2024-01-30T03:27:07;4.37;;;3.10;;
15055;SDS011;7626;42.674;23.284;2024-01-30T03:29:34;4.27;;;3.17;;
15055;SDS011;7626;42.674;23.284;2024-01-30T03:32:03;4.83;;;3.53;;
15055;SDS011;7626;42.674;23.284;2024-01-30T03:34:32;4.37;;;3.80;;
15055;SDS011;7626;42.674;23.284;2024-01-30T03:37:02;4.97;;;3.37;;
15055;SDS011;7626;42.674;23.284;2024-01-30T03:39:30;5.27;;;3.33;;
15055;SDS011;7626;42.674;23.284;2024-01-30T03:41:59;4.33;;;2.90;;
15055;SDS011;7626;42.674;23.284;2024-01-30T03:44:27;4.33;;;3.30;;
15055;SDS011;7626;42.674;23.284;2024-01-30T03:46:55;4.00;;;3.07;;
15055;SDS011;7626;42.674;23.284;2024-01-30T03:49:29;4.33;;;3.37;;
15055;SDS011;7626;42.674;23.284;2024-01-30T03:51:58;3.30;;;2.90;;
15055;SDS011;7626;42.674;23.284;2024-01-30T03:54:25;6.40;;;3.17;;
15055;SDS011;7626;42.674;23.284;2024-01-30T03:56:53;3.60;;;2.77;;
15055;SDS011;7626;42.674;23.284;2024-01-30T03:59:20;3.37;;;2.70;;
15055;SDS011;7626;42.674;23.284;2024-01-30T04:01:50;3.67;;;2.83;;
15055;SDS011;7626;42.674;23.284;2024-01-30T04:04:19;3.57;;;2.80;;
15055;SDS011;7626;42.674;23.284;2024-01-30T04:06:48;4.60;;;3.10;;
15055;SDS011;7626;42.674;23.284;2024-01-30T04:09:16;3.23;;;2.67;;
15055;SDS011;7626;42.674;23.284;2024-01-30T04:11:44;4.33;;;2.87;;
15055;SDS011;7626;42.674;23.284;2024-01-30T04:14:13;3.93;;;3.07;;
15055;SDS011;7626;42.674;23.284;2024-01-30T04:16:41;3.67;;;3.10;;
15055;SDS011;7626;42.674;23.284;2024-01-30T04:19:08;4.10;;;3.33;;
15055;SDS011;7626;42.674;23.284;2024-01-30T04:21:35;4.13;;;3.13;;
15055;SDS011;7626;42.674;23.284;2024-01-30T04:24:05;4.97;;;2.93;;
15055;SDS011;7626;42.674;23.284;2024-01-30T04:26:33;3.53;;;2.83;;
15055;SDS011;7626;42.674;23.284;2024-01-30T04:29:02;4.47;;;2.80;;
15055;SDS011;7626;42.674;23.284;2024-01-30T04:31:30;4.30;;;2.90;;
15055;SDS011;7626;42.674;23.284;2024-01-30T04:33:57;4.60;;;3.17;;
15055;SDS011;7626;42.674;23.284;2024-01-30T04:36:26;3.43;;;2.73;;
15055;SDS011;7626;42.674;23.284;2024-01-30T04:38:54;3.63;;;2.90;;
15055;SDS011;7626;42.674;23.284;2024-01-30T04:41:25;4.60;;;3.27;;
15055;SDS011;7626;42.674;23.284;2024-01-30T04:43:56;4.10;;;3.47;;
15055;SDS011;7626;42.674;23.284;2024-01-30T04:46:24;4.83;;;3.13;;
15055;SDS011;7626;42.674;23.284;2024-01-30T04:48:52;4.87;;;3.17;;
15055;SDS011;7626;42.674;23.284;2024-01-30T04:51:20;4.50;;;3.27;;
15055;SDS011;7626;42.674;23.284;2024-01-30T04:53:48;5.23;;;3.90;;
15055;SDS011;7626;42.674;23.284;2024-01-30T04:56:16;4.97;;;3.83;;
15055;SDS011;7626;42.674;23.284;2024-01-30T04:58:46;4.30;;;3.10;;
15055;SDS011;7626;42.674;23.284;2024-01-30T05:01:14;4.60;;;3.20;;
15055;SDS011;7626;42.674;23.284;2024-01-30T05:03:43;5.23;;;3.40;;
15055;SDS011;7626;42.674;23.284;2024-01-30T05:06:10;4.57;;;3.20;;
15055;SDS011;7626;42.674;23.284;2024-01-30T05:08:39;4.93;;;3.50;;
15055;SDS011;7626;42.674;23.284;2024-01-30T05:11:06;3.50;;;3.03;;
15055;SDS011;7626;42.674;23.284;2024-01-30T05:13:33;5.30;;;2.90;;
15055;SDS011;7626;42.674;23.284;2024-01-30T05:16:04;4.10;;;3.00;;
15055;SDS011;7626;42.674;23.284;2024-01-30T05:18:32;4.50;;;3.53;;
15055;SDS011;7626;42.674;23.284;2024-01-30T05:20:59;4.97;;;3.60;;
15055;SDS011;7626;42.674;23.284;2024-01-30T05:23:28;5.57;;;3.73;;
15055;SDS011;7626;42.674;23.284;2024-01-30T05:26:04;5.67;;;3.53;;
15055;SDS011;7626;42.674;23.284;2024-01-30T05:28:44;4.60;;;3.63;;
15055;SDS011;7626;42.674;23.284;2024-01-30T05:31:15;5.63;;;3.83;;
15055;SDS011;7626;42.674;23.284;2024-01-30T05:33:48;5.83;;;3.50;;
15055;SDS011;7626;42.674;23.284;2024-01-30T05:36:16;5.57;;;3.77;;
15055;SDS011;7626;42.674;23.284;2024-01-30T05:38:43;5.83;;;3.63;;
15055;SDS011;7626;42.674;23.284;2024-01-30T05:41:10;5.13;;;3.80;;
15055;SDS011;7626;42.674;23.284;2024-01-30T05:43:38;4.97;;;3.67;;
15055;SDS011;7626;42.674;23.284;2024-01-30T05:46:06;6.17;;;4.03;;
15055;SDS011;7626;42.674;23.284;2024-01-30T05:48:35;5.37;;;3.57;;
15055;SDS011;7626;42.674;23.284;2024-01-30T05:51:03;6.33;;;4.90;;
15055;SDS011;7626;42.674;23.284;2024-01-30T05:53:32;7.97;;;4.70;;
15055;SDS011;7626;42.674;23.284;2024-01-30T05:55:59;5.50;;;3.90;;
15055;SDS011;7626;42.674;23.284;2024-01-30T05:58:31;5.53;;;4.40;;
15055;SDS011;7626;42.674;23.284;2024-01-30T06:01:00;6.50;;;4.17;;
15055;SDS011;7626;42.674;23.284;2024-01-30T06:03:29;11.27;;;5.50;;
15055;SDS011;7626;42.674;23.284;2024-01-30T06:05:57;7.13;;;4.43;;
15055;SDS011;7626;42.674;23.284;2024-01-30T06:08:25;9.70;;;3.97;;
15055;SDS011;7626;42.674;23.284;2024-01-30T06:10:52;6.63;;;3.83;;
15055;SDS011;7626;42.674;23.284;2024-01-30T06:13:20;5.77;;;3.90;;
15055;SDS011;7626;42.674;23.284;2024-01-30T06:15:47;5.50;;;4.17;;
15055;SDS011;7626;42.674;23.284;2024-01-30T06:18:15;5.83;;;3.97;;
15055;SDS011;7626;42.674;23.284;2024-01-30T06:20:43;5.37;;;3.97;;
15055;SDS011;7626;42.674;23.284;2024-01-30T06:23:13;7.70;;;3.70;;
15055;SDS011;7626;42.674;23.284;2024-01-30T06:25:50;4.67;;;3.90;;
15055;SDS011;7626;42.674;23.284;2024-01-30T06:28:19;8.17;;;3.90;;
15055;SDS011;7626;42.674;23.284;2024-01-30T06:30:48;11.47;;;3.70;;
15055;SDS011;7626;42.674;23.284;2024-01-30T06:33:15;6.50;;;3.97;;
15055;SDS011;7626;42.674;23.284;2024-01-30T06:35:42;5.83;;;3.83;;
15055;SDS011;7626;42.674;23.284;2024-01-30T06:38:12;5.90;;;3.43;;
15055;SDS011;7626;42.674;23.284;2024-01-30T06:40:40;5.77;;;4.00;;
15055;SDS011;7626;42.674;23.284;2024-01-30T06:43:09;6.10;;;3.53;;
15055;SDS011;7626;42.674;23.284;2024-01-30T06:45:40;4.40;;;2.97;;
15055;SDS011;7626;42.674;23.284;2024-01-30T06:48:10;3.30;;;2.93;;
15055;SDS011;7626;42.674;23.284;2024-01-30T06:50:39;4.40;;;3.27;;
15055;SDS011;7626;42.674;23.284;2024-01-30T06:53:12;5.63;;;3.37;;
15055;SDS011;7626;42.674;23.284;2024-01-30T06:55:41;4.43;;;3.30;;
15055;SDS011;7626;42.674;23.284;2024-01-30T06:58:17;6.10;;;3.50;;
15055;SDS011;7626;42.674;23.284;2024-01-30T07:00:45;4.53;;;3.27;;
15055;SDS011;7626;42.674;23.284;2024-01-30T07:03:14;4.03;;;3.07;;
15055;SDS011;7626;42.674;23.284;2024-01-30T07:05:42;9.03;;;3.50;;
15055;SDS011;7626;42.674;23.284;2024-01-30T07:08:11;4.97;;;3.23;;
15055;SDS011;7626;42.674;23.284;2024-01-30T07:10:46;4.73;;;2.90;;
15055;SDS011;7626;42.674;23.284;2024-01-30T07:13:14;4.90;;;3.40;;
15055;SDS011;7626;42.674;23.284;2024-01-30T07:15:43;3.70;;;2.90;;
15055;SDS011;7626;42.674;23.284;2024-01-30T07:18:17;6.33;;;3.10;;
15055;SDS011;7626;42.674;23.284;2024-01-30T07:20:55;3.90;;;3.07;;
15055;SDS011;7626;42.674;23.284;2024-01-30T07:23:23;6.30;;;3.20;;
15055;SDS011;7626;42.674;23.284;2024-01-30T07:25:53;4.57;;;3.30;;
15055;SDS011;7626;42.674;23.284;2024-01-30T07:28:21;4.27;;;3.03;;
15055;SDS011;7626;42.674;23.284;2024-01-30T07:30:48;3.13;;;2.83;;
15055;SDS011;7626;42.674;23.284;2024-01-30T07:33:19;4.03;;;2.97;;
15055;SDS011;7626;42.674;23.284;2024-01-30T07:35:47;3.70;;;2.73;;
15055;SDS011;7626;42.674;23.284;2024-01-30T07:38:15;5.17;;;2.70;;
15055;SDS011;7626;42.674;23.284;2024-01-30T07:40:42;10.83;;;3.33;;
15055;SDS011;7626;42.674;23.284;2024-01-30T07:43:14;3.67;;;2.93;;
15055;SDS011;7626;42.674;23.284;2024-01-30T07:45:41;7.43;;;4.07;;
15055;SDS011;7626;42.674;23.284;2024-01-30T07:48:09;4.77;;;2.97;;
15055;SDS011;7626;42.674;23.284;2024-01-30T07:50:37;3.83;;;2.60;;
15055;SDS011;7626;42.674;23.284;2024-01-30T07:53:04;3.07;;;2.67;;
15055;SDS011;7626;42.674;23.284;2024-01-30T07:55:33;4.13;;;2.67;;
15055;SDS011;7626;42.674;23.284;2024-01-30T07:58:01;3.30;;;2.80;;
15055;SDS011;7626;42.674;23.284;2024-01-30T08:00:34;6.70;;;3.57;;
15055;SDS011;7626;42.674;23.284;2024-01-30T08:03:04;6.60;;;2.93;;
15055;SDS011;7626;42.674;23.284;2024-01-30T08:05:32;9.73;;;2.90;;
15055;SDS011;7626;42.674;23.284;2024-01-30T08:08:04;3.53;;;2.80;;
15055;SDS011;7626;42.674;23.284;2024-01-30T08:10:35;6.43;;;4.23;;
15055;SDS011;7626;42.674;23.284;2024-01-30T08:13:03;3.47;;;3.10;;
15055;SDS011;7626;42.674;23.284;2024-01-30T08:15:32;4.37;;;3.00;;
15055;SDS011;7626;42.674;23.284;2024-01-30T08:17:59;3.23;;;2.40;;
15055;SDS011;7626;42.674;23.284;2024-01-30T08:20:27;4.10;;;3.30;;
15055;SDS011;7626;42.674;23.284;2024-01-30T08:22:54;4.23;;;2.70;;
15055;SDS011;7626;42.674;23.284;2024-01-30T08:25:21;3.37;;;2.77;;
15055;SDS011;7626;42.674;23.284;2024-01-30T08:27:59;4.27;;;2.83;;
15055;SDS011;7626;42.674;23.284;2024-01-30T08:30:26;5.70;;;2.83;;
15055;SDS011;7626;42.674;23.284;2024-01-30T08:32:55;3.77;;;2.90;;
15055;SDS011;7626;42.674;23.284;2024-01-30T08:35:22;4.50;;;3.23;;
15055;SDS011;7626;42.674;23.284;2024-01-30T08:37:50;2.50;;;2.20;;
15055;SDS011;7626;42.674;23.284;2024-01-30T08:40:17;5.43;;;3.03;;
15055;SDS011;7626;42.674;23.284;2024-01-30T08:42:47;3.77;;;2.50;;
15055;SDS011;7626;42.674;23.284;2024-01-30T08:45:14;4.47;;;2.80;;
15055;SDS011;7626;42.674;23.284;2024-01-30T08:47:42;3.23;;;2.80;;
15055;SDS011;7626;42.674;23.284;2024-01-30T08:50:12;4.43;;;2.80;;
15055;SDS011;7626;42.674;23.284;2024-01-30T08:52:39;3.43;;;2.70;;
15055;SDS011;7626;42.674;23.284;2024-01-30T08:55:06;4.27;;;3.33;;
15055;SDS011;7626;42.674;23.284;2024-01-30T08:57:34;5.47;;;4.20;;
15055;SDS011;7626;42.674;23.284;2024-01-30T09:00:03;4.70;;;3.90;;
15055;SDS011;7626;42.674;23.284;2024-01-30T09:02:33;5.87;;;3.67;;
15055;SDS011;7626;42.674;23.284;2024-01-30T09:05:00;4.77;;;3.77;;
15055;SDS011;7626;42.674;23.284;2024-01-30T09:07:34;9.03;;;4.23;;
15055;SDS011;7626;42.674;23.284;2024-01-30T09:10:02;6.37;;;3.80;;
15055;SDS011;7626;42.674;23.284;2024-01-30T09:12:31;5.23;;;3.80;;
15055;SDS011;7626;42.674;23.284;2024-01-30T09:14:59;4.97;;;3.73;;
15055;SDS011;7626;42.674;23.284;2024-01-30T09:17:26;3.90;;;3.50;;
15055;SDS011;7626;42.674;23.284;2024-01-30T09:19:53;4.47;;;3.40;;
15055;SDS011;7626;42.674;23.284;2024-01-30T09:22:20;4.63;;;3.57;;
15055;SDS011;7626;42.674;23.284;2024-01-30T09:24:48;3.93;;;3.43;;
15055;SDS011;7626;42.674;23.284;2024-01-30T09:27:15;6.27;;;4.37;;
15055;SDS011;7626;42.674;23.284;2024-01-30T09:29:42;6.33;;;3.70;;
15055;SDS011;7626;42.674;23.284;2024-01-30T09:32:09;4.23;;;3.37;;
15055;SDS011;7626;42.674;23.284;2024-01-30T09:34:36;4.00;;;3.23;;
15055;SDS011;7626;42.674;23.284;2024-01-30T09:37:04;10.53;;;3.83;;
15055;SDS011;7626;42.674;23.284;2024-01-30T09:39:31;7.93;;;3.77;;
15055;SDS011;7626;42.674;23.284;2024-01-30T09:42:02;7.50;;;3.17;;
15055;SDS011;7626;42.674;23.284;2024-01-30T09:44:36;4.80;;;3.30;;
15055;SDS011;7626;42.674;23.284;2024-01-30T09:47:07;4.93;;;3.63;;
15055;SDS011;7626;42.674;23.284;2024-01-30T09:49:34;3.70;;;3.17;;
15055;SDS011;7626;42.674;23.284;2024-01-30T09:52:03;5.20;;;3.23;;
15055;SDS011;7626;42.674;23.284;2024-01-30T09:54:31;4.73;;;3.07;;
15055;SDS011;7626;42.674;23.284;2024-01-30T09:57:01;5.37;;;3.37;;
15055;SDS011;7626;42.674;23.284;2024-01-30T09:59:28;4.53;;;3.03;;
15055;SDS011;7626;42.674;23.284;2024-01-30T10:01:55;6.30;;;3.37;;
15055;SDS011;7626;42.674;23.284;2024-01-30T10:04:23;4.27;;;3.47;;
15055;SDS011;7626;42.674;23.284;2024-01-30T10:06:53;6.43;;;3.70;;
15055;SDS011;7626;42.674;23.284;2024-01-30T10:09:21;7.50;;;4.07;;
15055;SDS011;7626;42.674;23.284;2024-01-30T10:11:48;5.50;;;3.70;;
15055;SDS011;7626;42.674;23.284;2024-01-30T10:14:23;4.77;;;3.00;;
15055;SDS011;7626;42.674;23.284;2024-01-30T10:16:51;4.10;;;3.37;;
15055;SDS011;7626;42.674;23.284;2024-01-30T10:19:19;5.73;;;3.50;;
15055;SDS011;7626;42.674;23.284;2024-01-30T10:21:49;5.80;;;3.53;;
15055;SDS011;7626;42.674;23.284;2024-01-30T10:24:16;4.10;;;3.17;;
15055;SDS011;7626;42.674;23.284;2024-01-30T10:26:46;6.63;;;3.43;;
15055;SDS011;7626;42.674;23.284;2024-01-30T10:29:19;4.20;;;3.40;;
15055;SDS011;7626;42.674;23.284;2024-01-30T10:32:00;4.33;;;3.50;;
15055;SDS011;7626;42.674;23.284;2024-01-30T10:34:32;3.70;;;3.13;;
15055;SDS011;7626;42.674;23.284;2024-01-30T10:37:04;4.03;;;3.63;;
15055;SDS011;7626;42.674;23.284;2024-01-30T10:39:39;3.57;;;3.10;;
15055;SDS011;7626;42.674;23.284;2024-01-30T10:42:11;3.57;;;2.90;;
15055;SDS011;7626;42.674;23.284;2024-01-30T10:45:02;4.30;;;3.47;;
15055;SDS011;7626;42.674;23.284;2024-01-30T10:47:33;3.77;;;2.90;;
15055;SDS011;7626;42.674;23.284;2024-01-30T10:50:03;3.87;;;2.90;;
15055;SDS011;7626;42.674;23.284;2024-01-30T10:52:31;5.27;;;3.17;;
15055;SDS011;7626;42.674;23.284;2024-01-30T10:55:02;6.33;;;3.53;;
15055;SDS011;7626;42.674;23.284;2024-01-30T10:57:34;4.23;;;3.20;;
15055;SDS011;7626;42.674;23.284;2024-01-30T11:00:10;4.47;;;3.20;;
15055;SDS011;7626;42.674;23.284;2024-01-30T11:02:49;4.27;;;3.10;;
15055;SDS011;7626;42.674;23.284;2024-01-30T11:05:23;7.67;;;3.33;;
15055;SDS011;7626;42.674;23.284;2024-01-30T11:07:53;4.57;;;3.57;;
15055;SDS011;7626;42.674;23.284;2024-01-30T11:10:20;3.53;;;3.17;;
15055;SDS011;7626;42.674;23.284;2024-01-30T11:12:51;4.57;;;3.07;;
15055;SDS011;7626;42.674;23.284;2024-01-30T11:15:20;6.77;;;3.10;;
15055;SDS011;7626;42.674;23.284;2024-01-30T11:17:51;6.10;;;3.10;;
15055;SDS011;7626;42.674;23.284;2024-01-30T11:20:22;4.23;;;3.07;;
15055;SDS011;7626;42.674;23.284;2024-01-30T11:22:55;4.37;;;2.83;;
15055;SDS011;7626;42.674;23.284;2024-01-30T11:25:23;5.43;;;2.67;;
15055;SDS011;7626;42.674;23.284;2024-01-30T11:27:54;5.57;;;3.00;;
15055;SDS011;7626;42.674;23.284;2024-01-30T11:30:30;3.60;;;2.90;;
15055;SDS011;7626;42.674;23.284;2024-01-30T11:33:00;4.37;;;3.00;;
15055;SDS011;7626;42.674;23.284;2024-01-30T11:35:32;3.30;;;2.83;;
15055;SDS011;7626;42.674;23.284;2024-01-30T11:38:01;5.13;;;3.10;;
15055;SDS011;7626;42.674;23.284;2024-01-30T11:40:32;4.20;;;3.23;;
15055;SDS011;7626;42.674;23.284;2024-01-30T11:43:02;6.53;;;4.17;;
15055;SDS011;7626;42.674;23.284;2024-01-30T11:45:32;5.60;;;3.47;;
15055;SDS011;7626;42.674;23.284;2024-01-30T11:48:01;5.50;;;3.47;;
15055;SDS011;7626;42.674;23.284;2024-01-30T11:50:30;4.57;;;3.60;;
15055;SDS011;7626;42.674;23.284;2024-01-30T11:52:58;5.77;;;3.47;;
15055;SDS011;7626;42.674;23.284;2024-01-30T11:55:28;4.20;;;3.50;;
15055;SDS011;7626;42.674;23.284;2024-01-30T11:57:57;3.83;;;3.23;;
15055;SDS011;7626;42.674;23.284;2024-01-30T12:00:26;3.57;;;3.00;;
15055;SDS011;7626;42.674;23.284;2024-01-30T12:03:10;3.63;;;2.87;;
15055;SDS011;7626;42.674;23.284;2024-01-30T12:05:37;3.30;;;2.90;;
15055;SDS011;7626;42.674;23.284;2024-01-30T12:08:08;4.73;;;3.40;;
15055;SDS011;7626;42.674;23.284;2024-01-30T12:10:42;7.40;;;3.20;;
15055;SDS011;7626;42.674;23.284;2024-01-30T12:13:09;3.40;;;3.10;;
15055;SDS011;7626;42.674;23.284;2024-01-30T12:15:36;3.67;;;3.27;;
15055;SDS011;7626;42.674;23.284;2024-01-30T12:18:05;4.37;;;3.57;;
15055;SDS011;7626;42.674;23.284;2024-01-30T12:20:32;4.13;;;3.27;;
15055;SDS011;7626;42.674;23.284;2024-01-30T12:22:59;5.00;;;3.90;;
15055;SDS011;7626;42.674;23.284;2024-01-30T12:25:26;7.10;;;3.70;;
15055;SDS011;7626;42.674;23.284;2024-01-30T12:27:53;5.43;;;3.80;;
15055;SDS011;7626;42.674;23.284;2024-01-30T12:30:29;5.83;;;3.37;;
15055;SDS011;7626;42.674;23.284;2024-01-30T12:32:56;5.00;;;3.50;;
15055;SDS011;7626;42.674;23.284;2024-01-30T12:35:25;4.07;;;3.17;;
15055;SDS011;7626;42.674;23.284;2024-01-30T12:37:51;4.13;;;3.23;;
15055;SDS011;7626;42.674;23.284;2024-01-30T12:40:18;5.33;;;3.57;;
15055;SDS011;7626;42.674;23.284;2024-01-30T12:42:46;4.47;;;3.60;;
15055;SDS011;7626;42.674;23.284;2024-01-30T12:45:18;4.27;;;3.77;;
15055;SDS011;7626;42.674;23.284;2024-01-30T12:47:48;4.00;;;3.53;;
15055;SDS011;7626;42.674;23.284;2024-01-30T12:50:15;3.83;;;3.27;;
15055;SDS011;7626;42.674;23.284;2024-01-30T12:52:45;5.43;;;4.07;;
15055;SDS011;7626;42.674;23.284;2024-01-30T12:55:12;6.67;;;4.27;;
15055;SDS011;7626;42.674;23.284;2024-01-30T12:57:41;5.77;;;3.70;;
15055;SDS011;7626;42.674;23.284;2024-01-30T13:00:12;4.63;;;3.63;;
15055;SDS011;7626;42.674;23.284;2024-01-30T13:02:40;4.60;;;3.50;;
15055;SDS011;7626;42.674;23.284;2024-01-30T13:05:11;5.33;;;3.50;;
15055;SDS011;7626;42.674;23.284;2024-01-30T13:07:40;6.00;;;3.30;;
15055;SDS011;7626;42.674;23.284;2024-01-30T13:10:22;5.20;;;3.50;;
15055;SDS011;7626;42.674;23.284;2024-01-30T13:12:51;5.00;;;3.63;;
15055;SDS011;7626;42.674;23.284;2024-01-30T13:15:19;5.10;;;3.57;;
15055;SDS011;7626;42.674;23.284;2024-01-30T13:17:50;4.67;;;3.77;;
15055;SDS011;7626;42.674;23.284;2024-01-30T13:20:20;6.80;;;3.93;;
15055;SDS011;7626;42.674;23.284;2024-01-30T13:22:47;5.27;;;3.70;;
15055;SDS011;7626;42.674;23.284;2024-01-30T13:25:17;4.47;;;3.90;;
15055;SDS011;7626;42.674;23.284;2024-01-30T13:27:45;6.50;;;3.60;;
15055;SDS011;7626;42.674;23.284;2024-01-30T13:30:16;4.10;;;3.47;;
15055;SDS011;7626;42.674;23.284;2024-01-30T13:32:45;5.90;;;3.87;;
15055;SDS011;7626;42.674;23.284;2024-01-30T13:35:13;4.17;;;3.70;;
15055;SDS011;7626;42.674;23.284;2024-01-30T13:37:41;5.17;;;3.90;;
15055;SDS011;7626;42.674;23.284;2024-01-30T13:40:13;5.10;;;3.57;;
15055;SDS011;7626;42.674;23.284;2024-01-30T13:42:55;7.37;;;3.70;;
15055;SDS011;7626;42.674;23.284;2024-01-30T13:45:24;4.70;;;3.50;;
15055;SDS011;7626;42.674;23.284;2024-01-30T13:47:52;7.70;;;4.03;;
15055;SDS011;7626;42.674;23.284;2024-01-30T13:50:19;5.93;;;4.60;;
15055;SDS011;7626;42.674;23.284;2024-01-30T13:52:46;6.27;;;3.93;;
15055;SDS011;7626;42.674;23.284;2024-01-30T13:55:16;7.17;;;4.43;;
15055;SDS011;7626;42.674;23.284;2024-01-30T13:57:58;5.70;;;3.90;;
15055;SDS011;7626;42.674;23.284;2024-01-30T14:00:27;8.77;;;4.30;;
15055;SDS011;7626;42.674;23.284;2024-01-30T14:03:00;6.67;;;4.50;;
15055;SDS011;7626;42.674;23.284;2024-01-30T14:05:35;4.67;;;4.00;;
15055;SDS011;7626;42.674;23.284;2024-01-30T14:08:07;5.40;;;3.70;;
15055;SDS011;7626;42.674;23.284;2024-01-30T14:10:35;6.10;;;4.00;;
15055;SDS011;7626;42.674;23.284;2024-01-30T14:13:06;5.03;;;3.70;;
15055;SDS011;7626;42.674;23.284;2024-01-30T14:15:40;10.60;;;4.07;;
15055;SDS011;7626;42.674;23.284;2024-01-30T14:18:09;6.60;;;4.30;;
15055;SDS011;7626;42.674;23.284;2024-01-30T14:20:38;6.23;;;4.07;;
15055;SDS011;7626;42.674;23.284;2024-01-30T14:23:05;6.97;;;4.33;;
15055;SDS011;7626;42.674;23.284;2024-01-30T14:25:35;8.27;;;4.43;;
15055;SDS011;7626;42.674;23.284;2024-01-30T14:28:07;5.17;;;3.97;;
15055;SDS011;7626;42.674;23.284;2024-01-30T14:30:34;8.63;;;4.43;;
15055;SDS011;7626;42.674;23.284;2024-01-30T14:33:06;7.43;;;5.27;;
15055;SDS011;7626;42.674;23.284;2024-01-30T14:35:37;6.43;;;4.47;;
15055;SDS011;7626;42.674;23.284;2024-01-30T14:38:05;6.23;;;4.40;;
15055;SDS011;7626;42.674;23.284;2024-01-30T14:40:34;6.00;;;4.40;;
15055;SDS011;7626;42.674;23.284;2024-01-30T14:43:02;6.67;;;4.10;;
15055;SDS011;7626;42.674;23.284;2024-01-30T14:45:32;6.07;;;3.80;;
15055;SDS011;7626;42.674;23.284;2024-01-30T14:48:00;4.93;;;3.43;;
15055;SDS011;7626;42.674;23.284;2024-01-30T14:50:28;4.60;;;3.70;;
15055;SDS011;7626;42.674;23.284;2024-01-30T14:52:55;7.07;;;3.97;;
15055;SDS011;7626;42.674;23.284;2024-01-30T14:55:23;6.30;;;4.00;;
15055;SDS011;7626;42.674;23.284;2024-01-30T14:57:51;7.07;;;3.97;;
15055;SDS011;7626;42.674;23.284;2024-01-30T15:00:21;5.73;;;4.20;;